Time;durP1;ratioP1;P1;durP2;ratioP2;P2;SDS_P1;SDS_P2;PMS_P1;PMS_P2;Temp;Humidity;BMP_temperature;BMP_pressure;BME280_temperature;BME280_humidity;BME280_pressure;Samples;Min_cycle;Max_cycle;Signal;HPM_P1;HPM_P2
2022/04/15 09:59:23;;;;;;;5.70;3.85;;;;;;;19.03;31.05;99771.00;5159646;27;20162;-68
2022/04/15 10:01:59;;;;;;;4.93;4.05;;;;;;;20.04;29.22;99765.59;5131280;27;20109;-69
2022/04/15 10:04:25;;;;;;;4.72;3.83;;;;;;;20.62;28.54;99758.28;5129189;28;20076;-68
2022/04/15 10:06:51;;;;;;;10.30;5.40;;;;;;;20.97;27.00;99750.41;5130356;27;20015;-69
2022/04/15 10:09:17;;;;;;;9.80;5.15;;;;;;;21.18;26.18;99758.19;5114872;28;20113;-69
2022/04/15 10:11:45;;;;;;;6.45;4.70;;;;;;;21.36;26.47;99745.22;5109142;28;20035;-68
2022/04/15 10:14:11;;;;;;;6.40;4.22;;;;;;;22.13;26.75;99735.56;5110135;28;20030;-69
2022/04/15 10:16:39;;;;;;;7.57;3.83;;;;;;;22.44;26.66;99733.06;5128958;28;20031;-69
2022/04/15 10:19:06;;;;;;;14.73;4.53;;;;;;;22.86;26.47;99731.34;5128928;28;20023;-69
2022/04/15 10:21:38;;;;;;;5.18;3.97;;;;;;;22.27;24.81;99729.84;5128186;28;20023;-68
2022/04/15 10:24:07;;;;;;;7.47;4.65;;;;;;;22.20;26.56;99723.34;5110298;28;20486;-69
2022/04/15 10:26:44;;;;;;;11.13;4.88;;;;;;;22.62;25.31;99720.84;5128161;28;20023;-69
2022/04/15 10:29:12;;;;;;;7.50;4.07;;;;;;;22.98;24.48;99707.25;5128272;28;20501;-69
2022/04/15 10:31:43;;;;;;;5.32;3.45;;;;;;;23.23;24.56;99705.50;5112781;28;20403;-69
2022/04/15 10:34:10;;;;;;;13.63;4.40;;;;;;;22.93;25.08;99695.50;5108695;28;20024;-69
2022/04/15 10:36:37;;;;;;;7.88;4.05;;;;;;;22.34;24.69;99689.13;5128007;28;20031;-69
2022/04/15 10:39:14;;;;;;;3.90;3.28;;;;;;;22.30;24.89;99691.19;5102568;28;20020;-69
2022/04/15 10:41:48;;;;;;;6.30;3.17;;;;;;;22.10;23.54;99700.16;5125259;28;20088;-69
2022/04/15 10:44:22;;;;;;;5.30;2.92;;;;;;;22.31;24.25;99684.28;5108024;28;20392;-71
2022/04/15 10:46:49;;;;;;;10.82;3.60;;;;;;;22.78;24.63;99689.84;5126513;28;20035;-71
2022/04/15 10:49:26;;;;;;;8.02;3.22;;;;;;;23.04;24.09;99675.47;5128957;28;20020;-72
2022/04/15 10:52:03;;;;;;;8.00;3.92;;;;;;;23.26;23.89;99681.84;5109668;28;20032;-71
2022/04/15 10:54:39;;;;;;;9.23;3.17;;;;;;;22.88;24.48;99681.66;5126426;28;20049;-72
2022/04/15 10:57:21;;;;;;;4.60;3.28;;;;;;;23.56;23.38;99669.03;5109086;28;20122;-71
2022/04/15 11:02:41;;;;;;;5.32;3.53;;;;;;;24.16;25.07;99662.41;5117043;28;20093;-72
2022/04/15 11:05:11;;;;;;;10.07;3.97;;;;;;;24.25;24.24;99662.72;5126733;28;20066;-71
2022/04/15 11:07:58;;;;;;;13.55;3.50;;;;;;;24.24;23.37;99661.09;5109683;28;20031;-71
2022/04/15 11:11:07;;;;;;;15.68;3.78;;;;;;;24.18;23.24;99651.34;5098325;28;20088;-73
2022/04/15 11:13:39;;;;;;;11.88;4.43;;;;;;;23.34;22.52;99646.38;5106334;28;20047;-69
2022/04/15 11:16:10;;;;;;;10.13;4.25;;;;;;;23.68;23.86;99642.84;5112728;28;20413;-69
2022/04/15 11:18:53;;;;;;;16.52;4.85;;;;;;;23.52;23.46;99649.09;5113566;28;20512;-69
2022/04/15 11:21:32;;;;;;;11.50;4.68;;;;;;;23.11;23.01;99652.63;5088022;28;20028;-70
2022/04/15 11:24:09;;;;;;;10.43;4.95;;;;;;;23.14;23.11;99649.72;5095260;28;20126;-69
2022/04/15 11:26:37;;;;;;;6.20;3.83;;;;;;;23.73;22.70;99641.59;5113459;28;20035;-67
2022/04/15 11:29:09;;;;;;;11.75;4.32;;;;;;;24.19;22.26;99648.09;5113838;28;20477;-68
2022/04/15 11:31:46;;;;;;;11.27;4.45;;;;;;;24.56;23.35;99630.53;5112990;28;20115;-68
2022/04/15 11:34:16;;;;;;;17.58;5.18;;;;;;;24.47;23.57;99631.84;5107758;28;20114;-68
2022/04/15 11:36:47;;;;;;;11.82;5.18;;;;;;;24.54;23.29;99617.47;5102868;28;20020;-68
2022/04/15 11:39:17;;;;;;;9.70;4.38;;;;;;;24.41;21.77;99619.28;5095203;28;20481;-69
2022/04/15 11:41:44;;;;;;;8.32;4.63;;;;;;;23.80;23.09;99621.50;5112520;28;20040;-70
2022/04/15 11:44:11;;;;;;;13.57;6.13;;;;;;;23.32;24.50;99613.78;5112341;28;20541;-68
2022/04/15 11:46:36;;;;;;;13.77;4.30;;;;;;;23.86;23.36;99607.59;5089628;28;20485;-71
2022/04/15 11:49:15;;;;;;;10.23;4.75;;;;;;;24.47;24.18;99605.31;5113241;28;20054;-70
2022/04/15 11:51:52;;;;;;;13.55;5.65;;;;;;;24.29;22.37;99599.81;5110884;28;20027;-69
2022/04/15 11:54:34;;;;;;;11.38;5.22;;;;;;;24.41;23.97;99599.25;5085368;28;20034;-69
2022/04/15 11:57:05;;;;;;;10.50;4.68;;;;;;;24.29;23.64;99588.41;5110068;28;20027;-69
2022/04/15 11:59:44;;;;;;;13.57;5.38;;;;;;;24.47;22.43;99580.38;5097096;28;20030;-71
2022/04/15 12:02:18;;;;;;;5.63;4.03;;;;;;;24.11;23.23;99595.09;5092733;28;20023;-70
2022/04/15 12:04:55;;;;;;;156.43;18.02;;;;;;;24.25;22.37;99577.00;5096214;28;20031;-68
2022/04/15 12:07:21;;;;;;;29.77;6.40;;;;;;;24.84;21.99;99582.78;5112434;28;20024;-72
2022/04/15 12:09:48;;;;;;;9.82;4.13;;;;;;;25.09;21.57;99574.63;5105550;28;20028;-69
2022/04/15 12:12:15;;;;;;;13.80;4.03;;;;;;;25.07;21.91;99570.59;5109076;28;20430;-69
2022/04/15 12:14:41;;;;;;;16.20;3.78;;;;;;;25.05;22.46;99562.44;5112091;28;20040;-69
2022/04/15 12:17:08;;;;;;;5.97;4.10;;;;;;;25.17;21.40;99555.31;5094161;28;20023;-68
2022/04/15 12:19:37;;;;;;;7.57;3.95;;;;;;;25.04;21.86;99560.81;5112714;28;20103;-69
2022/04/15 12:22:04;;;;;;;6.13;3.83;;;;;;;24.85;22.87;99555.81;5111716;28;20045;-70
2022/04/15 12:24:30;;;;;;;7.70;4.20;;;;;;;24.89;21.86;99551.66;5110833;28;20522;-68
2022/04/15 12:27:00;;;;;;;10.00;3.88;;;;;;;24.81;22.92;99550.94;5107689;28;20044;-72
2022/04/15 12:32:17;;;;;;;11.50;6.25;;;;;;;24.85;22.63;99541.50;5111404;28;20050;-71
2022/04/15 12:34:45;;;;;;;21.13;11.85;;;;;;;25.08;22.56;99540.75;5111111;28;20030;-71
2022/04/15 12:37:38;;;;;;;11.25;4.13;;;;;;;24.89;21.66;99531.63;5110729;28;20031;-71
2022/04/15 12:40:29;;;;;;;12.88;5.55;;;;;;;24.98;21.44;99525.38;5093054;28;20054;-72
2022/04/15 12:42:55;;;;;;;18.88;11.40;;;;;;;24.96;20.20;99516.41;5084102;28;20028;-69
2022/04/15 12:45:22;;;;;;;9.57;4.90;;;;;;;24.91;21.01;99511.19;5085663;28;20490;-70
2022/04/15 12:48:03;;;;;;;9.05;4.20;;;;;;;24.87;21.31;99516.16;5101492;28;20081;-70
2022/04/15 12:50:31;;;;;;;23.48;11.23;;;;;;;24.64;19.17;99506.25;5108035;28;20020;-70
2022/04/15 12:52:57;;;;;;;17.60;9.25;;;;;;;24.59;19.03;99504.69;5090514;28;20032;-70
2022/04/15 12:55:34;;;;;;;33.10;16.42;;;;;;;24.35;19.52;99492.38;5110746;28;20034;-72
2022/04/15 12:58:15;;;;;;;13.48;5.93;;;;;;;24.70;19.89;99498.81;5107204;28;20042;-71
2022/04/15 13:00:41;;;;;;;10.77;4.80;;;;;;;24.64;20.09;99494.81;5111073;28;20080;-71
2022/04/15 13:03:07;;;;;;;11.13;4.55;;;;;;;24.83;19.92;99489.66;5110454;28;20522;-71
2022/04/15 13:05:32;;;;;;;11.20;4.88;;;;;;;24.65;18.98;99490.72;5093956;28;20024;-71
2022/04/15 13:07:59;;;;;;;35.33;14.65;;;;;;;24.60;18.56;99476.91;5112402;28;20026;-70
2022/04/15 13:10:26;;;;;;;23.52;9.93;;;;;;;24.48;19.18;99481.97;5111034;28;20024;-68
2022/04/15 13:12:51;;;;;;;7.25;4.43;;;;;;;24.65;19.34;99473.56;5112113;28;20049;-71
2022/04/15 13:15:17;;;;;;;7.30;3.60;;;;;;;24.88;19.51;99474.88;5111361;28;20051;-69
2022/04/15 13:17:43;;;;;;;13.85;7.63;;;;;;;24.56;19.88;99468.41;5093993;28;20065;-69
2022/04/15 13:20:11;;;;;;;13.50;6.18;;;;;;;24.77;19.43;99461.56;5112188;28;20028;-70
2022/04/15 13:22:39;;;;;;;8.05;4.30;;;;;;;24.58;19.26;99457.34;5111409;28;20115;-72
2022/04/15 13:25:06;;;;;;;12.90;4.97;;;;;;;24.70;18.17;99453.06;5111959;28;20404;-70
2022/04/15 13:27:31;;;;;;;18.77;5.68;;;;;;;24.85;19.63;99447.13;5102107;28;20019;-71
2022/04/15 13:29:58;;;;;;;9.95;4.47;;;;;;;24.77;19.46;99447.25;5092808;28;20023;-69
2022/04/15 13:32:24;;;;;;;7.90;4.13;;;;;;;24.66;20.08;99444.53;5111497;28;20023;-71
2022/04/15 13:34:49;;;;;;;11.68;3.85;;;;;;;24.72;19.23;99447.69;5093384;28;20110;-72
2022/04/15 13:37:16;;;;;;;20.42;5.40;;;;;;;24.88;20.79;99440.56;5093731;28;20110;-70
2022/04/15 13:39:42;;;;;;;11.70;6.28;;;;;;;25.13;19.33;99430.72;5093228;28;20015;-70
2022/04/15 13:42:10;;;;;;;14.57;7.70;;;;;;;25.17;20.74;99420.84;5094278;28;20106;-71
2022/04/15 13:44:36;;;;;;;7.00;5.60;;;;;;;25.14;21.00;99424.53;5103968;28;20048;-72
2022/04/15 13:47:03;;;;;;;19.25;4.93;;;;;;;25.40;20.17;99421.22;5111787;28;20398;-73
2022/04/15 13:49:30;;;;;;;6.28;4.72;;;;;;;25.17;19.19;99423.69;5111456;28;20024;-70
2022/04/15 13:51:55;;;;;;;12.82;6.63;;;;;;;25.13;20.94;99419.28;5110699;28;20041;-70
2022/04/15 13:57:05;;;;;;;9.60;3.58;;;;;;;25.22;19.99;99413.81;5111470;28;20563;-69
2022/04/15 13:59:31;;;;;;;13.45;4.95;;;;;;;25.03;19.26;99410.44;5111350;28;20089;-71
2022/04/15 14:01:57;;;;;;;6.97;3.28;;;;;;;24.96;18.98;99401.97;5110998;28;20023;-71
2022/04/15 14:04:23;;;;;;;7.35;3.67;;;;;;;24.80;19.24;99405.56;5092634;28;20028;-73
2022/04/15 14:06:51;;;;;;;14.68;6.38;;;;;;;24.87;19.49;99398.91;5087409;28;20049;-73
2022/04/15 14:09:18;;;;;;;13.18;4.50;;;;;;;24.79;19.94;99399.00;5084124;28;20016;-73
2022/04/15 14:11:46;;;;;;;17.05;4.43;;;;;;;24.97;19.26;99386.44;5089789;28;20431;-75
2022/04/15 14:14:13;;;;;;;8.65;2.97;;;;;;;24.99;16.83;99392.56;5092482;28;20069;-74
2022/04/15 14:16:40;;;;;;;8.43;3.80;;;;;;;24.98;17.09;99373.78;5098550;28;20036;-72
2022/04/15 14:19:06;;;;;;;10.40;5.78;;;;;;;24.98;18.87;99372.94;5090409;28;20443;-70
2022/04/15 14:21:35;;;;;;;6.68;3.00;;;;;;;24.79;17.73;99370.41;5104826;28;20163;-70
2022/04/15 14:24:00;;;;;;;15.88;4.57;;;;;;;25.03;18.22;99361.81;5103887;28;20027;-71
2022/04/15 14:26:26;;;;;;;6.03;3.90;;;;;;;24.98;19.31;99356.63;5092277;28;20034;-72
2022/04/15 14:28:51;;;;;;;15.43;3.72;;;;;;;24.86;19.61;99358.03;5092881;28;20035;-72
2022/04/15 14:31:17;;;;;;;7.00;2.60;;;;;;;24.91;18.21;99348.16;5111082;28;20027;-72
2022/04/15 14:33:44;;;;;;;8.25;4.65;;;;;;;24.99;18.91;99346.78;5091467;28;20028;-72
2022/04/15 14:36:10;;;;;;;16.95;4.03;;;;;;;24.97;19.01;99339.88;5109409;28;20032;-73
2022/04/15 14:38:37;;;;;;;9.25;2.83;;;;;;;24.94;19.58;99333.78;5107980;28;20028;-72
2022/04/15 14:41:05;;;;;;;9.88;4.15;;;;;;;25.03;19.48;99338.94;5084472;28;20042;-69
2022/04/15 14:43:31;;;;;;;11.85;5.20;;;;;;;25.17;19.81;99332.13;5109410;28;20049;-71
2022/04/15 14:45:57;;;;;;;12.73;5.13;;;;;;;25.23;20.59;99343.88;5095084;28;20031;-69
2022/04/15 14:48:23;;;;;;;9.68;4.82;;;;;;;25.17;19.55;99337.03;5113713;28;20027;-70
2022/04/15 14:50:49;;;;;;;3.25;2.95;;;;;;;25.03;18.82;99338.94;5107099;28;20024;-70
2022/04/15 14:53:15;;;;;;;5.07;3.20;;;;;;;24.93;18.03;99337.91;5114563;28;20459;-70
2022/04/15 14:55:40;;;;;;;4.32;2.15;;;;;;;25.05;18.62;99336.44;5096562;28;20035;-71
2022/04/15 14:58:06;;;;;;;3.75;2.63;;;;;;;24.91;17.48;99342.44;5095352;28;20444;-72
2022/04/15 15:00:35;;;;;;;8.90;2.67;;;;;;;25.03;18.71;99333.22;5093231;28;20036;-71
2022/04/15 15:03:05;;;;;;;4.75;2.15;;;;;;;25.04;17.92;99328.28;5114329;28;20057;-72
2022/04/15 15:05:31;;;;;;;8.18;2.72;;;;;;;25.21;19.21;99337.75;5109946;28;20039;-72
2022/04/15 15:07:57;;;;;;;3.47;2.45;;;;;;;25.24;17.42;99326.25;5096305;28;20422;-70
2022/04/15 15:10:23;;;;;;;4.75;2.22;;;;;;;25.27;16.75;99324.56;5101411;28;20092;-72
2022/04/15 15:12:49;;;;;;;5.22;2.45;;;;;;;25.05;18.29;99335.66;5076510;28;20027;-72
2022/04/15 15:15:15;;;;;;;11.32;3.10;;;;;;;25.09;19.98;99328.56;5105745;28;20027;-73
2022/04/15 15:17:41;;;;;;;7.20;2.92;;;;;;;24.94;20.14;99330.94;5093050;28;20468;-72
2022/04/15 15:20:08;;;;;;;9.90;3.00;;;;;;;25.04;20.53;99334.00;5093231;28;20138;-72
2022/04/15 15:22:34;;;;;;;7.90;3.25;;;;;;;25.07;21.54;99325.34;5094426;28;20031;-72
2022/04/15 15:30:45;;;;;;;15.43;3.83;;;;;;;24.65;21.96;99317.13;5107023;28;20042;-76
2022/04/15 15:33:14;;;;;;;6.45;3.08;;;;;;;24.54;23.57;99313.63;5093515;28;20043;-73
2022/04/15 15:35:39;;;;;;;5.90;3.40;;;;;;;24.48;24.22;99319.03;5085857;28;20061;-72
2022/04/15 15:38:05;;;;;;;9.63;3.50;;;;;;;24.29;24.71;99316.94;5085129;28;20027;-72
2022/04/15 15:40:32;;;;;;;12.75;3.65;;;;;;;24.31;25.46;99312.38;5112354;28;20487;-72
2022/04/15 15:42:58;;;;;;;7.03;3.58;;;;;;;24.11;25.38;99315.97;5093850;28;20059;-72
2022/04/15 15:45:30;;;;;;;4.28;3.47;;;;;;;24.02;26.04;99312.81;5100994;28;20120;-72
2022/04/15 15:47:56;;;;;;;4.82;3.20;;;;;;;23.87;25.92;99311.44;5113946;28;20028;-72
2022/04/15 15:50:22;;;;;;;11.07;3.63;;;;;;;24.07;26.52;99311.56;5095314;28;20027;-71
2022/04/15 15:52:48;;;;;;;7.38;3.85;;;;;;;23.95;27.47;99308.03;5101635;28;20035;-72
2022/04/15 15:55:14;;;;;;;5.53;3.45;;;;;;;23.87;28.09;99306.50;5111043;28;20408;-72
2022/04/15 15:57:41;;;;;;;7.60;3.45;;;;;;;23.86;28.34;99301.25;5109088;28;20047;-71
2022/04/15 16:00:10;;;;;;;8.02;3.97;;;;;;;23.77;28.60;99301.75;5078412;28;20032;-72
2022/04/15 16:02:36;;;;;;;9.27;4.10;;;;;;;23.70;28.99;99303.50;5086602;28;20107;-72
2022/04/15 16:05:04;;;;;;;9.38;3.58;;;;;;;23.76;29.15;99303.00;5082874;28;20389;-71
2022/04/15 16:07:30;;;;;;;10.02;3.50;;;;;;;23.66;28.92;99293.34;5100657;28;20161;-72
2022/04/15 16:09:55;;;;;;;8.02;4.07;;;;;;;23.51;29.29;99292.75;5095457;28;20111;-71
2022/04/15 16:12:21;;;;;;;6.85;3.88;;;;;;;23.38;29.46;99281.91;5079931;28;20106;-71
2022/04/15 16:14:46;;;;;;;5.75;3.65;;;;;;;23.46;29.61;99281.81;5112594;28;20019;-71
2022/04/15 16:17:12;;;;;;;11.73;3.72;;;;;;;23.46;29.48;99282.59;5100368;28;20391;-70
2022/04/15 16:19:38;;;;;;;10.45;4.03;;;;;;;23.36;29.44;99286.44;5101101;28;20023;-70
2022/04/15 16:22:04;;;;;;;8.68;3.85;;;;;;;23.19;29.70;99277.63;5093412;28;20462;-69
2022/04/15 16:24:30;;;;;;;6.40;3.78;;;;;;;23.06;29.91;99285.94;5087992;28;20024;-69
2022/04/15 16:26:57;;;;;;;6.70;3.70;;;;;;;23.24;29.74;99279.19;5093930;28;20118;-68
2022/04/15 16:29:23;;;;;;;5.40;3.17;;;;;;;22.99;30.19;99286.03;5098709;28;20020;-77
2022/04/15 16:31:49;;;;;;;9.82;4.68;;;;;;;23.05;29.93;99290.03;5091443;28;20032;-73
2022/04/15 16:34:14;;;;;;;5.80;2.90;;;;;;;22.90;30.38;99291.41;5081589;28;20043;-70
2022/04/15 16:36:40;;;;;;;7.72;3.53;;;;;;;23.02;30.26;99287.22;5102605;28;20036;-69
2022/04/15 16:39:05;;;;;;;4.85;3.05;;;;;;;23.09;30.24;99289.97;5106157;28;20461;-71
2022/04/15 16:41:31;;;;;;;5.22;3.88;;;;;;;23.25;30.25;99286.53;5090699;28;20088;-70
2022/04/15 16:43:56;;;;;;;8.75;4.22;;;;;;;23.32;30.65;99294.22;5109893;28;20066;-74
2022/04/15 16:46:24;;;;;;;5.20;3.92;;;;;;;23.42;30.80;99296.13;5109402;28;20493;-71
2022/04/15 16:48:49;;;;;;;7.70;4.20;;;;;;;23.27;31.36;99289.78;5082896;28;20031;-77
2022/04/15 16:51:15;;;;;;;9.27;4.28;;;;;;;23.28;30.73;99286.50;5081268;28;20024;-76
2022/04/15 16:53:41;;;;;;;5.72;3.85;;;;;;;23.09;31.08;99298.53;5107970;28;20138;-71
2022/04/15 16:58:51;;;;;;;8.10;3.67;;;;;;;22.72;30.78;99295.28;5100105;28;20113;-72
2022/04/15 17:01:18;;;;;;;12.93;4.30;;;;;;;22.36;31.49;99292.75;5099028;28;20031;-76
2022/04/15 17:03:46;;;;;;;12.68;5.32;;;;;;;22.15;31.83;99294.53;5075179;28;20036;-73
2022/04/15 17:06:13;;;;;;;16.60;5.00;;;;;;;22.08;31.83;99300.25;5077467;28;20035;-71
2022/04/15 17:08:39;;;;;;;6.72;4.18;;;;;;;22.18;31.42;99293.69;5096976;28;20064;-73
2022/04/15 17:11:05;;;;;;;13.90;4.30;;;;;;;22.02;31.93;99302.75;5104490;28;20020;-71
2022/04/15 17:13:32;;;;;;;23.20;4.07;;;;;;;22.00;32.26;99305.19;5085352;28;20505;-71
2022/04/15 17:16:00;;;;;;;35.60;6.13;;;;;;;21.98;32.39;99322.72;5099991;28;20042;-72
2022/04/15 17:18:27;;;;;;;25.83;5.10;;;;;;;21.84;32.40;99325.63;5104442;28;20032;-71
2022/04/15 17:20:53;;;;;;;24.85;4.65;;;;;;;21.67;32.95;99328.19;5087549;28;20036;-72
2022/04/15 17:23:19;;;;;;;12.93;4.35;;;;;;;21.72;32.60;99335.47;5103590;28;20034;-71
2022/04/15 17:25:46;;;;;;;12.45;4.05;;;;;;;21.53;32.94;99334.72;5087060;28;20027;-73
2022/04/15 17:28:11;;;;;;;24.13;14.25;;;;;;;21.24;33.39;99342.59;5099990;28;20028;-71
2022/04/15 17:30:38;;;;;;;23.80;12.80;;;;;;;21.28;33.05;99349.06;5105809;28;20027;-70
2022/04/15 17:33:04;;;;;;;63.03;27.92;;;;;;;21.30;33.28;99343.75;5088312;28;20031;-71
2022/04/15 17:35:31;;;;;;;32.45;15.60;;;;;;;21.16;33.15;99353.97;5107643;28;20110;-70
2022/04/15 17:37:57;;;;;;;31.90;14.57;;;;;;;21.07;33.36;99353.56;5106382;28;20031;-71
2022/04/15 17:40:22;;;;;;;18.20;10.15;;;;;;;21.07;33.52;99364.94;5107664;28;20031;-71
2022/04/15 17:42:48;;;;;;;24.30;12.15;;;;;;;20.75;34.31;99365.78;5106984;28;20031;-70
2022/04/15 17:45:14;;;;;;;19.10;10.73;;;;;;;20.71;33.86;99373.50;5105900;28;20527;-71
2022/04/15 17:47:39;;;;;;;22.83;13.63;;;;;;;20.81;33.95;99384.09;5106699;28;20027;-70
2022/04/15 17:50:06;;;;;;;20.60;13.40;;;;;;;20.70;33.69;99384.06;5108367;28;20019;-70
2022/04/15 17:52:32;;;;;;;27.00;13.45;;;;;;;20.81;33.52;99395.44;5107322;28;20034;-71
2022/04/15 17:54:58;;;;;;;37.53;24.02;;;;;;;20.72;33.06;99400.69;5108315;28;20028;-70
2022/04/15 17:57:25;;;;;;;34.25;15.75;;;;;;;20.36;34.09;99414.88;5103156;28;20048;-72
2022/04/15 17:59:51;;;;;;;53.03;22.90;;;;;;;20.45;34.28;99421.81;5102635;28;20031;-70
2022/04/15 18:02:16;;;;;;;54.72;20.50;;;;;;;20.59;34.04;99418.16;5082737;28;20031;-70
2022/04/15 18:04:42;;;;;;;33.22;15.20;;;;;;;20.68;33.74;99426.25;5105532;28;20032;-70
2022/04/15 18:07:08;;;;;;;30.83;13.43;;;;;;;20.81;33.26;99428.69;5108036;28;20051;-70
2022/04/15 18:09:33;;;;;;;98.40;35.78;;;;;;;20.60;34.11;99427.50;5107355;28;20042;-70
2022/04/15 18:12:00;;;;;;;72.32;26.05;;;;;;;20.62;34.27;99436.41;5107361;28;20448;-72
2022/04/15 18:14:27;;;;;;;50.47;20.88;;;;;;;20.82;34.14;99439.69;5088950;28;20027;-69
2022/04/15 18:16:53;;;;;;;52.63;18.08;;;;;;;20.92;34.09;99438.06;5086213;28;20410;-70
2022/04/15 18:19:19;;;;;;;41.20;16.33;;;;;;;20.93;34.02;99438.88;5100385;28;20028;-71
2022/04/15 18:21:47;;;;;;;43.00;17.15;;;;;;;21.01;33.88;99454.72;5092994;28;20133;-69
2022/04/15 18:24:14;;;;;;;68.55;43.45;;;;;;;20.16;34.54;99460.69;5112703;28;20031;-70
2022/04/15 18:26:40;;;;;;;73.10;39.08;;;;;;;19.26;36.21;99464.69;5111906;28;20080;-71
2022/04/15 18:29:06;;;;;;;63.20;43.72;;;;;;;19.11;36.41;99466.59;5111441;28;20027;-70
2022/04/15 18:31:34;;;;;;;49.90;29.55;;;;;;;18.27;37.11;99469.84;5109476;28;20409;-73
2022/04/15 18:34:01;;;;;;;52.10;29.90;;;;;;;18.28;37.41;99462.97;5083895;28;20111;-71
2022/04/15 18:36:27;;;;;;;48.35;33.33;;;;;;;18.84;36.64;99463.94;5110422;28;20092;-73
2022/04/15 18:38:52;;;;;;;31.75;19.98;;;;;;;18.48;37.21;99472.09;5110377;28;20019;-74
2022/04/15 18:41:18;;;;;;;24.83;12.52;;;;;;;18.70;36.57;99469.44;5110772;28;20088;-73
2022/04/15 18:43:44;;;;;;;16.52;10.90;;;;;;;18.86;36.36;99472.84;5106085;28;20023;-74
2022/04/15 18:46:10;;;;;;;17.90;9.98;;;;;;;18.78;36.78;99471.16;5092338;28;20032;-70
2022/04/15 18:54:04;;;;;;;15.77;7.53;;;;;;;18.27;36.14;99473.50;5110548;28;20034;-69
2022/04/15 18:56:32;;;;;;;12.65;6.65;;;;;;;18.30;35.77;99481.22;5111245;28;20028;-71
2022/04/15 18:58:58;;;;;;;21.35;6.95;;;;;;;18.11;36.31;99468.06;5110847;28;20039;-74
2022/04/15 19:01:25;;;;;;;10.60;6.15;;;;;;;18.08;35.93;99466.00;5109038;28;20030;-71
2022/04/15 19:03:51;;;;;;;8.13;5.55;;;;;;;17.91;35.93;99465.34;5105335;28;20028;-71
2022/04/15 19:06:17;;;;;;;13.88;5.32;;;;;;;18.00;35.93;99472.75;5092170;28;20027;-71
2022/04/15 19:08:43;;;;;;;12.90;6.00;;;;;;;17.96;36.36;99478.34;5110226;28;20076;-71
2022/04/15 19:11:09;;;;;;;10.68;5.47;;;;;;;17.90;36.17;99477.06;5110580;28;20035;-71
2022/04/15 19:13:35;;;;;;;8.00;5.25;;;;;;;17.93;36.10;99471.47;5091813;28;20099;-71
2022/04/15 19:16:00;;;;;;;9.45;5.13;;;;;;;18.12;36.16;99478.19;5111199;28;20114;-71
2022/04/15 19:18:26;;;;;;;12.80;5.47;;;;;;;18.17;35.68;99477.84;5109952;28;20046;-71
2022/04/15 19:20:52;;;;;;;16.52;4.43;;;;;;;18.29;35.37;99473.91;5110573;28;20062;-69
2022/04/15 19:23:18;;;;;;;15.88;6.55;;;;;;;18.43;35.28;99472.44;5105621;28;20129;-72
2022/04/15 19:25:45;;;;;;;21.10;8.52;;;;;;;18.49;35.58;99474.53;5110259;28;20135;-71
2022/04/15 19:28:12;;;;;;;24.60;9.68;;;;;;;18.60;35.36;99471.81;5109697;28;20572;-71
2022/04/15 19:30:39;;;;;;;32.60;13.75;;;;;;;18.58;35.36;99474.22;5105310;28;20141;-72
2022/04/15 19:33:05;;;;;;;47.50;20.10;;;;;;;18.48;35.28;99463.59;5109584;28;20015;-74
2022/04/15 19:35:32;;;;;;;37.83;22.52;;;;;;;17.15;37.33;99458.69;5109411;28;20033;-73
2022/04/15 19:37:58;;;;;;;37.50;20.63;;;;;;;17.35;37.32;99462.22;5109861;28;20034;-73
2022/04/15 19:40:24;;;;;;;48.70;19.55;;;;;;;17.70;36.93;99460.25;5106369;28;20024;-72
2022/04/15 19:42:49;;;;;;;38.75;17.65;;;;;;;17.90;36.73;99468.59;5084032;28;20081;-72
2022/04/15 19:45:15;;;;;;;41.30;17.77;;;;;;;17.97;36.64;99457.34;5101675;28;20569;-72
2022/04/15 19:47:40;;;;;;;56.65;21.90;;;;;;;17.93;36.95;99456.50;5083072;28;20031;-71
2022/04/15 19:50:08;;;;;;;58.42;24.75;;;;;;;17.77;37.18;99460.34;5103877;28;20049;-71
2022/04/15 19:52:34;;;;;;;48.28;23.90;;;;;;;17.68;37.29;99468.31;5104894;28;20075;-72
2022/04/15 19:54:59;;;;;;;49.70;18.45;;;;;;;17.21;37.91;99462.81;5084490;28;20019;-72
2022/04/15 20:02:53;;;;;;;28.20;15.70;;;;;;;16.27;39.72;99466.81;5112427;28;20061;-71
2022/04/15 20:05:21;;;;;;;38.55;19.92;;;;;;;16.17;39.75;99473.06;5112419;28;20020;-71
2022/04/15 20:07:47;;;;;;;40.20;19.55;;;;;;;16.50;40.18;99472.53;5093482;28;20542;-71
2022/04/15 20:10:13;;;;;;;61.03;23.17;;;;;;;16.35;40.04;99467.78;5112526;28;20110;-72
2022/04/15 20:12:40;;;;;;;48.28;22.40;;;;;;;16.62;39.31;99462.22;5107259;28;20023;-72
2022/04/15 20:15:06;;;;;;;43.30;23.67;;;;;;;16.28;39.38;99465.63;5101896;28;20024;-71
2022/04/15 20:17:32;;;;;;;33.83;21.10;;;;;;;15.70;40.74;99472.94;5080074;28;20028;-72
2022/04/15 20:19:58;;;;;;;42.55;22.13;;;;;;;15.57;41.74;99467.44;5094445;28;20573;-72
2022/04/15 20:22:27;;;;;;;32.33;19.48;;;;;;;16.05;40.93;99469.25;5080331;28;20031;-71
2022/04/15 20:24:58;;;;;;;28.77;17.58;;;;;;;15.80;40.73;99477.97;5103065;28;20044;-71
2022/04/15 20:27:25;;;;;;;42.20;21.08;;;;;;;15.68;41.15;99469.66;5091306;28;20034;-72
2022/04/15 20:29:51;;;;;;;50.90;21.77;;;;;;;15.96;40.60;99468.66;5093527;28;20474;-71
2022/04/15 20:32:18;;;;;;;41.30;21.35;;;;;;;16.11;40.54;99464.13;5096857;28;20020;-71
2022/04/15 20:34:45;;;;;;;39.20;19.25;;;;;;;16.07;40.92;99455.59;5102386;28;20634;-71
2022/04/15 20:37:10;;;;;;;24.52;13.85;;;;;;;14.86;42.90;99471.00;5096319;28;20243;-71
2022/04/15 20:39:37;;;;;;;31.63;14.32;;;;;;;14.70;43.91;99473.81;5104881;28;20016;-71
2022/04/15 20:42:05;;;;;;;29.20;16.70;;;;;;;14.78;43.83;99474.03;5096393;28;20626;-71
2022/04/15 20:44:34;;;;;;;29.63;15.43;;;;;;;14.27;45.98;99472.69;5079467;28;20028;-71
2022/04/15 20:47:00;;;;;;;32.50;18.73;;;;;;;14.23;46.35;99463.31;5094507;28;20032;-71
2022/04/15 20:52:09;;;;;;;31.35;15.45;;;;;;;13.88;47.10;99470.41;5093138;28;20042;-71
2022/04/15 20:54:36;;;;;;;25.92;14.90;;;;;;;13.93;47.03;99464.50;5100973;28;20402;-71
2022/04/15 20:57:04;;;;;;;34.05;18.50;;;;;;;14.13;46.74;99464.66;5090497;28;20020;-71
2022/04/15 20:59:30;;;;;;;41.40;20.50;;;;;;;14.24;46.30;99470.56;5100729;28;20103;-71
2022/04/15 21:01:55;;;;;;;36.10;18.75;;;;;;;14.30;45.88;99463.53;5107875;28;20100;-72
2022/04/15 21:04:21;;;;;;;31.02;15.80;;;;;;;14.42;45.79;99473.88;5094117;28;20110;-72
2022/04/15 21:06:47;;;;;;;26.05;16.13;;;;;;;13.43;48.07;99478.69;5079636;28;20030;-71
2022/04/15 21:09:13;;;;;;;29.95;16.90;;;;;;;13.50;48.08;99475.31;5089467;28;20073;-71
2022/04/15 21:11:40;;;;;;;28.98;15.02;;;;;;;13.54;48.29;99481.88;5107069;28;20108;-71
2022/04/15 21:14:06;;;;;;;23.83;13.57;;;;;;;13.54;47.97;99484.69;5074667;28;20038;-71
2022/04/15 21:16:33;;;;;;;21.88;13.73;;;;;;;13.17;49.20;99481.91;5107429;28;20027;-71
2022/04/15 21:18:59;;;;;;;25.25;15.30;;;;;;;13.12;49.62;99476.50;5072467;28;20548;-71
2022/04/15 21:21:25;;;;;;;22.52;15.38;;;;;;;13.13;50.07;99470.56;5097178;28;20062;-72
2022/04/15 21:23:50;;;;;;;26.15;16.98;;;;;;;13.38;49.63;99472.50;5094605;28;20028;-71
2022/04/15 21:26:31;;;;;;;35.88;19.67;;;;;;;13.22;50.22;99470.41;5081377;28;20104;-72
2022/04/15 21:28:56;;;;;;;;;;;;;;;12.80;51.75;99465.06;5110669;28;20024;-71
2022/04/15 21:31:22;;;;;;;29.42;19.92;;;;;;;12.62;52.48;99476.50;5110693;28;19911;-71
2022/04/15 21:33:47;;;;;;;31.70;17.98;;;;;;;12.67;52.16;99470.69;5110511;28;20425;-71
2022/04/15 21:36:13;;;;;;;32.65;20.15;;;;;;;12.53;52.86;99465.38;5091156;28;20105;-72
2022/04/15 21:38:41;;;;;;;25.38;18.00;;;;;;;12.62;52.26;99466.13;5109189;28;20550;-71
2022/04/15 21:41:06;;;;;;;24.90;15.60;;;;;;;12.48;52.60;99465.59;5091596;28;20413;-71
2022/04/15 21:43:33;;;;;;;36.83;16.10;;;;;;;12.31;52.85;99466.66;5108676;28;20019;-71
2022/04/15 21:45:59;;;;;;;27.50;16.67;;;;;;;12.15;53.49;99456.06;5109931;28;20023;-71
2022/04/15 21:48:24;;;;;;;31.92;17.38;;;;;;;11.97;53.74;99460.19;5086166;28;20080;-71
2022/04/15 21:53:34;;;;;;;56.40;25.85;;;;;;;11.84;54.08;99459.31;5110138;28;20046;-71
2022/04/15 21:55:59;;;;;;;39.30;19.23;;;;;;;11.60;54.75;99453.28;5110006;28;20020;-71
2022/04/15 21:58:25;;;;;;;32.80;20.80;;;;;;;11.49;55.24;99458.44;5110319;28;20043;-71
2022/04/15 22:00:51;;;;;;;55.72;26.55;;;;;;;11.71;54.89;99452.84;5109416;28;20080;-71